Iona, South Dakota
Current Conditions -  °F | °C
As of 2:35 PM on Monday 24 Nov 2014 (Local Time) from K9V9 Reporting Station
Clear Clear  
Wind Chill: 16°   Ceiling: Unl
Heat Index: 29°   Visibility: 10mi
Dew Point:   Wind: 22mph
Humidity: 42%   Direction: 320°NW
Pressure: 29.91"   Gusts: 28mph
Location:  43.54°N, 99.42°W
Report Text: K9V9 242035Z AUTO 32019G24KT 10SM CLR M02/M13 A2991 RMK AO2 T10161130
Loading
Personal Weather Stations






























Interactive Weather Map New forecast layout! Learn more

10-Day Weather Forecast

Advertisements
Track Severe Weather on mobile